Klodzko, Poland

9:43 PM CET on December 05, 2016 (GMT +0100)
Kolejowa | | Change Station

Elev 1000 ft 50.44 °N, 16.66 °E | Updated 13 minutes ago

Clear
Clear
29.8 °F
Feels Like 30 °F
N
0.6
Wind Variable Wind from NW
Gusts 1.9 mph

Today
High -- | Low -- °F
--% Chance of Precip.
Yesterday
High -- | Low -- °F
Precip. -- in
Pressure 30.27 in
Visibility -9999.0 miles
Clouds
Windchill 30 °F
Dew Point 27 °F
Humidity 89%
Rainfall 0.00 in
Snow Depth Not available.
7:37 AM 3:50 PM
Waxing Crescent, 34% visible
METAR EPWR 052030Z 27006KT CAVOK M04/M06 Q1025
Pressure 30.27 in
Visibility -9999.0 miles
Clouds
Windchill 30 °F
Dew Point 27 °F
Humidity 89%
Rainfall 0.00 in
Snow Depth Not available.
7:37 AM 3:50 PM
Waxing Crescent, 34% visible
METAR EPWR 052030Z 27006KT CAVOK M04/M06 Q1025

10-Day Weather Forecast

×

Almanac

Astronomy

Dec. 05, 2016 Rise Set
Actual Time
Civil Twilight
Nautical Twilight
Astronomical Twilight
Moon
Length of Visible Light
Length of Day
Tomorrow will be .
, % of the Moon is Illuminated

Today's Extremes

Country Highs Country Lows

Community

WunderPhotos

Upload Photos

1,955,861 photos uploaded!

WunderBlog® & News

Nearby

Air Quality

  Air Quality AQ Index Pollutant
Not available.

Snow Depth

Station Depth Elevation

Earthquake Activity

City Distance Mag. Time & Date
Minimum magnitude displayed is 2.5.

Coastal Water Temperatures

Place Temperature

Stations

Nearby Weather Stations

Station Location Temp. Windchill Dew Point Humidity Wind Precip. Elev Updated Type